Time;durP1;ratioP1;P1;durP2;ratioP2;P2;SDS_P1;SDS_P2;PMS_P1;PMS_P2;Temp;Humidity;BMP_temperature;BMP_pressure;BME280_temperature;BME280_humidity;BME280_pressure;Samples;Min_cycle;Max_cycle;Signal;HPM_P1;HPM_P2
2022/03/09 00:02:15;;;;;;;15.10;11.63;;;-0.30;1.00;;;;;;4990077;28;20180;-63
2022/03/09 00:04:40;;;;;;;15.73;10.67;;;-0.40;1.00;;;;;;4989569;28;20443;-64
2022/03/09 00:07:06;;;;;;;17.57;11.40;;;-0.40;1.00;;;;;;4989010;28;20250;-64
2022/03/09 00:09:32;;;;;;;12.50;9.73;;;-0.50;1.00;;;;;;4994857;28;20208;-64
2022/03/09 00:11:57;;;;;;;17.00;11.53;;;-0.50;1.00;;;;;;4995708;28;20195;-64
2022/03/09 00:14:23;;;;;;;14.10;11.23;;;-0.50;1.00;;;;;;4994704;28;21045;-64
2022/03/09 00:16:48;;;;;;;13.57;10.70;;;-0.50;1.00;;;;;;4994724;28;20279;-63
2022/03/09 00:19:14;;;;;;;16.23;10.83;;;-0.50;1.00;;;;;;4994371;28;20238;-63
2022/03/09 00:21:39;;;;;;;12.77;10.37;;;-0.40;1.00;;;;;;4995385;28;20190;-63
2022/03/09 00:24:05;;;;;;;13.10;9.80;;;-0.40;1.00;;;;;;4996748;28;20689;-62
2022/03/09 00:26:31;;;;;;;14.40;10.33;;;-0.50;1.00;;;;;;4996525;28;20560;-64
2022/03/09 00:28:56;;;;;;;14.87;10.37;;;-0.50;1.00;;;;;;4994922;28;20797;-64
2022/03/09 00:31:22;;;;;;;10.60;9.30;;;-0.50;1.00;;;;;;4995493;28;20200;-63
2022/03/09 00:33:48;;;;;;;12.80;9.87;;;-0.50;1.00;;;;;;4991057;28;20184;-64
2022/03/09 00:36:13;;;;;;;15.03;11.13;;;-0.50;1.00;;;;;;4995283;28;20218;-64
2022/03/09 00:38:39;;;;;;;14.30;10.60;;;-0.50;1.00;;;;;;4983688;28;20505;-64
2022/03/09 00:41:04;;;;;;;13.70;9.37;;;-0.50;1.00;;;;;;4995980;28;20223;-63
2022/03/09 00:43:30;;;;;;;10.80;9.60;;;-0.60;1.00;;;;;;4994580;28;20591;-63
2022/03/09 00:45:56;;;;;;;12.90;10.10;;;-0.60;1.00;;;;;;4994767;28;20226;-64
2022/03/09 00:48:22;;;;;;;14.20;10.23;;;-0.70;1.00;;;;;;4996777;28;21005;-61
2022/03/09 00:50:47;;;;;;;11.70;9.63;;;-0.70;1.00;;;;;;4994416;28;20188;-64
2022/03/09 00:53:13;;;;;;;12.03;9.43;;;-0.80;1.00;;;;;;4996104;28;20371;-63
2022/03/09 00:55:39;;;;;;;13.17;10.23;;;-0.80;1.00;;;;;;4995230;28;20212;-64
2022/03/09 00:58:05;;;;;;;13.10;9.77;;;-0.80;1.00;;;;;;4996608;28;20180;-64
2022/03/09 01:00:31;;;;;;;16.73;9.85;;;-0.80;1.00;;;;;;4988870;28;20443;-64
2022/03/09 01:02:57;;;;;;;15.97;9.77;;;-0.80;1.00;;;;;;4999382;28;20180;-64
2022/03/09 01:05:22;;;;;;;15.30;9.20;;;-0.90;1.00;;;;;;4995559;28;20467;-64
2022/03/09 01:07:48;;;;;;;14.63;9.03;;;-0.80;1.00;;;;;;4995074;28;20183;-63
2022/03/09 01:10:14;;;;;;;10.90;8.90;;;-0.90;1.00;;;;;;4994623;28;20267;-64
2022/03/09 01:12:39;;;;;;;15.23;10.03;;;-0.90;1.00;;;;;;4994238;28;20235;-64
2022/03/09 01:15:06;;;;;;;14.03;10.30;;;-0.90;1.00;;;;;;4995624;28;20204;-64
2022/03/09 01:17:32;;;;;;;13.85;9.73;;;-0.90;1.00;;;;;;4995471;28;20196;-63
2022/03/09 01:19:59;;;;;;;11.13;8.70;;;-0.90;1.00;;;;;;4991443;28;20715;-64
2022/03/09 01:22:24;;;;;;;14.63;9.90;;;-0.90;1.00;;;;;;4990202;28;20682;-64
2022/03/09 01:24:50;;;;;;;14.50;9.73;;;-0.90;1.00;;;;;;4993567;28;20276;-64
2022/03/09 01:27:15;;;;;;;13.30;8.67;;;-0.90;1.00;;;;;;4991879;28;20195;-64
2022/03/09 01:29:41;;;;;;;18.57;9.07;;;-1.00;1.00;;;;;;4992386;28;20222;-63
2022/03/09 01:32:07;;;;;;;11.63;8.80;;;-1.00;1.00;;;;;;4985229;28;20283;-63
2022/03/09 01:34:33;;;;;;;15.27;10.32;;;-1.00;1.00;;;;;;4991439;28;20188;-64
2022/03/09 01:36:58;;;;;;;11.90;9.60;;;-1.00;1.00;;;;;;4991689;28;20207;-64
2022/03/09 01:39:24;;;;;;;12.97;9.03;;;-1.10;1.00;;;;;;4997370;28;20181;-64
2022/03/09 01:41:50;;;;;;;11.87;9.33;;;-1.10;1.00;;;;;;4989034;28;20212;-63
2022/03/09 01:44:24;;;;;;;13.10;9.77;;;-1.20;1.00;;;;;;4971239;28;20185;-61
2022/03/09 01:46:52;;;;;;;13.90;9.30;;;-1.20;1.00;;;;;;4985068;28;20191;-64
2022/03/09 01:49:19;;;;;;;15.65;10.05;;;-1.30;1.00;;;;;;4990643;28;20978;-64
2022/03/09 01:51:46;;;;;;;13.65;9.27;;;-1.30;1.00;;;;;;4990827;28;20182;-64
2022/03/09 01:54:13;;;;;;;13.35;10.02;;;-1.30;1.00;;;;;;4992930;28;20849;-64
2022/03/09 01:56:39;;;;;;;10.75;8.88;;;-1.30;1.00;;;;;;4992290;28;20200;-65
2022/03/09 01:59:07;;;;;;;14.48;9.75;;;-1.30;1.00;;;;;;4991133;28;20216;-65
2022/03/09 02:01:32;;;;;;;12.88;9.27;;;-1.30;1.00;;;;;;4994568;28;20187;-64
2022/03/09 02:03:58;;;;;;;14.27;9.30;;;-1.30;1.00;;;;;;4990011;28;20184;-64
2022/03/09 02:06:24;;;;;;;13.60;9.30;;;-1.30;1.00;;;;;;4990828;28;20930;-64
2022/03/09 02:11:36;;;;;;;13.18;9.23;;;-1.40;1.00;;;;;;4989022;28;20207;-64
2022/03/09 02:14:01;;;;;;;14.13;9.80;;;-1.40;1.00;;;;;;4991696;28;20259;-63
2022/03/09 02:16:27;;;;;;;10.67;9.00;;;-1.40;1.00;;;;;;4991174;28;20290;-64
2022/03/09 02:18:53;;;;;;;11.40;9.30;;;-1.40;1.00;;;;;;4991551;28;20619;-64
2022/03/09 02:21:20;;;;;;;13.87;9.13;;;-1.40;1.00;;;;;;4990205;28;20188;-64
2022/03/09 02:23:46;;;;;;;12.60;8.43;;;-1.40;1.00;;;;;;4990751;28;20184;-64
2022/03/09 02:26:12;;;;;;;10.20;8.38;;;-1.50;1.00;;;;;;4989260;28;20188;-64
2022/03/09 02:28:39;;;;;;;10.40;8.37;;;-1.40;1.00;;;;;;4989950;28;20597;-65
2022/03/09 02:31:05;;;;;;;12.77;8.70;;;-1.40;1.00;;;;;;4988272;28;20858;-62
2022/03/09 02:33:31;;;;;;;13.70;9.95;;;-1.40;1.00;;;;;;4984888;28;20199;-64
2022/03/09 02:35:56;;;;;;;12.73;8.57;;;-1.40;1.00;;;;;;4992756;28;20207;-64
2022/03/09 02:38:22;;;;;;;11.97;8.47;;;-1.40;1.00;;;;;;4990620;28;20530;-65
2022/03/09 02:40:47;;;;;;;10.73;8.80;;;-1.50;1.00;;;;;;4989923;28;20271;-64
2022/03/09 02:43:13;;;;;;;12.00;8.80;;;-1.50;1.00;;;;;;4992166;28;20662;-64
2022/03/09 02:45:38;;;;;;;14.63;9.57;;;-1.60;1.00;;;;;;4990308;28;20192;-65
2022/03/09 02:48:04;;;;;;;11.20;8.97;;;-1.60;1.00;;;;;;4991589;28;20278;-64
2022/03/09 02:50:30;;;;;;;14.40;9.50;;;-1.60;1.00;;;;;;4985298;28;20538;-65
2022/03/09 02:52:55;;;;;;;11.97;9.50;;;-1.60;1.00;;;;;;4988361;28;20229;-64
2022/03/09 02:55:21;;;;;;;12.20;8.97;;;-1.60;1.00;;;;;;4990934;28;20310;-64
2022/03/09 02:57:46;;;;;;;15.37;9.83;;;-1.60;1.00;;;;;;4990807;28;20192;-63
2022/03/09 03:00:12;;;;;;;14.50;9.67;;;-1.70;1.00;;;;;;4986970;28;20199;-64
2022/03/09 03:02:39;;;;;;;17.52;9.43;;;-1.70;1.00;;;;;;4992016;28;20258;-64
2022/03/09 03:05:06;;;;;;;11.75;9.23;;;-1.70;1.00;;;;;;4988326;28;20181;-64
2022/03/09 03:07:32;;;;;;;14.88;10.82;;;-1.70;1.00;;;;;;4993407;28;20192;-64
2022/03/09 03:09:57;;;;;;;14.10;10.00;;;-1.70;1.00;;;;;;4988286;28;20203;-65
2022/03/09 03:12:23;;;;;;;17.27;10.67;;;-1.60;1.00;;;;;;4991535;28;20184;-63
2022/03/09 03:14:49;;;;;;;15.60;10.80;;;-1.60;1.00;;;;;;4990171;28;20239;-64
2022/03/09 03:17:14;;;;;;;13.97;9.50;;;-1.60;1.00;;;;;;4981085;28;20206;-64
2022/03/09 03:19:40;;;;;;;13.93;10.50;;;-1.60;1.00;;;;;;4990082;28;20196;-64
2022/03/09 03:22:05;;;;;;;13.37;9.97;;;-1.60;1.00;;;;;;4990143;28;20189;-64
2022/03/09 03:24:31;;;;;;;12.03;9.40;;;-1.60;1.00;;;;;;4991220;28;20191;-64
2022/03/09 03:26:56;;;;;;;16.80;11.20;;;-1.50;1.00;;;;;;4987012;28;20581;-64
2022/03/09 03:29:22;;;;;;;14.33;9.07;;;-1.50;1.00;;;;;;4989226;28;20180;-64
2022/03/09 03:31:48;;;;;;;13.17;9.60;;;-1.50;1.00;;;;;;4987962;28;20183;-64
2022/03/09 03:34:13;;;;;;;13.83;9.70;;;-1.50;1.00;;;;;;4989178;28;20183;-64
2022/03/09 03:36:39;;;;;;;16.10;10.60;;;-1.50;1.00;;;;;;4982798;28;20216;-64
2022/03/09 03:39:04;;;;;;;16.57;10.30;;;-1.40;1.00;;;;;;4990380;28;20187;-64
2022/03/09 03:41:30;;;;;;;12.33;9.50;;;-1.50;1.00;;;;;;4987733;28;20185;-64
2022/03/09 03:43:56;;;;;;;16.90;10.70;;;-1.50;1.00;;;;;;4988471;28;20204;-64
2022/03/09 03:46:21;;;;;;;16.57;9.73;;;-1.50;1.00;;;;;;4991115;28;20180;-64
2022/03/09 03:48:47;;;;;;;13.80;10.10;;;-1.50;1.00;;;;;;4989738;28;20238;-65
2022/03/09 03:51:12;;;;;;;13.37;8.70;;;-1.50;1.00;;;;;;4989104;28;20188;-65
2022/03/09 03:53:38;;;;;;;13.20;10.00;;;-1.50;1.00;;;;;;4972158;28;20188;-65
2022/03/09 03:56:03;;;;;;;13.00;9.50;;;-1.60;1.00;;;;;;4987904;28;20219;-65
2022/03/09 03:58:29;;;;;;;13.77;9.37;;;-1.60;1.00;;;;;;4986056;28;20195;-65
2022/03/09 04:00:54;;;;;;;16.03;9.97;;;-1.60;1.00;;;;;;4987427;28;20446;-64
2022/03/09 04:03:20;;;;;;;14.17;9.40;;;-1.60;1.00;;;;;;4989937;28;20196;-64
2022/03/09 04:05:45;;;;;;;14.63;9.90;;;-1.60;1.00;;;;;;4974355;28;20183;-64
2022/03/09 04:08:11;;;;;;;13.77;9.03;;;-1.70;1.00;;;;;;4989726;28;20196;-65
2022/03/09 04:10:36;;;;;;;13.10;8.83;;;-1.70;1.00;;;;;;4988222;28;20215;-64
2022/03/09 04:13:04;;;;;;;11.67;9.00;;;-1.70;1.00;;;;;;4992000;28;20247;-64
2022/03/09 04:15:31;;;;;;;12.63;9.85;;;-1.70;1.00;;;;;;4987483;28;20620;-64
2022/03/09 04:17:57;;;;;;;14.65;10.05;;;-1.70;1.00;;;;;;4989018;28;20187;-61
2022/03/09 04:20:23;;;;;;;14.90;8.95;;;-1.70;1.00;;;;;;4985671;28;20280;-65
2022/03/09 04:22:48;;;;;;;14.33;9.67;;;-1.80;1.00;;;;;;4982500;28;20275;-65
2022/03/09 04:25:14;;;;;;;10.53;8.80;;;-1.80;1.00;;;;;;4988903;28;20207;-64
2022/03/09 04:27:40;;;;;;;13.27;9.60;;;-1.80;1.00;;;;;;4987600;28;20188;-64
2022/03/09 04:30:07;;;;;;;11.10;9.13;;;-1.80;1.00;;;;;;4988916;28;20449;-64
2022/03/09 04:32:34;;;;;;;13.10;8.60;;;-1.80;1.00;;;;;;4985599;28;20187;-64
2022/03/09 04:35:00;;;;;;;14.57;9.13;;;-1.80;1.00;;;;;;4991316;28;20235;-64
2022/03/09 04:37:30;;;;;;;15.02;9.55;;;-1.80;1.00;;;;;;4988612;28;20187;-64
2022/03/09 04:39:56;;;;;;;12.35;10.02;;;-1.80;1.00;;;;;;4988638;28;20536;-64
2022/03/09 04:42:22;;;;;;;13.00;9.65;;;-1.80;1.00;;;;;;4988867;28;20191;-64
2022/03/09 04:44:47;;;;;;;11.27;8.93;;;-1.90;1.00;;;;;;4990420;28;20180;-65
2022/03/09 04:47:13;;;;;;;14.10;9.07;;;-1.80;1.00;;;;;;4989917;28;20886;-64
2022/03/09 04:49:38;;;;;;;13.30;9.10;;;-1.90;1.00;;;;;;4985689;28;20220;-64
2022/03/09 04:52:04;;;;;;;14.30;9.37;;;-2.00;1.00;;;;;;4988747;28;20203;-64
2022/03/09 04:54:30;;;;;;;13.30;9.63;;;-1.90;1.00;;;;;;4986006;28;20695;-65
2022/03/09 04:56:55;;;;;;;12.20;9.30;;;-1.90;1.00;;;;;;4989282;28;21081;-64
2022/03/09 04:59:21;;;;;;;15.40;10.53;;;-1.90;1.00;;;;;;4998256;28;20226;-64
2022/03/09 05:01:47;;;;;;;17.87;9.13;;;-2.00;1.00;;;;;;4991673;28;20180;-65
2022/03/09 05:04:12;;;;;;;13.57;9.27;;;-2.00;1.00;;;;;;4994407;28;20180;-65
2022/03/09 05:06:38;;;;;;;12.37;9.67;;;-2.00;1.00;;;;;;4987971;28;20180;-65
2022/03/09 05:09:03;;;;;;;13.53;10.33;;;-2.00;1.00;;;;;;4992120;28;20447;-65
2022/03/09 05:11:29;;;;;;;15.17;10.47;;;-2.00;1.00;;;;;;4993075;28;20180;-64
2022/03/09 05:13:54;;;;;;;15.00;10.50;;;-2.00;1.00;;;;;;4992057;28;20235;-64
2022/03/09 05:16:22;;;;;;;16.50;10.18;;;-2.00;1.00;;;;;;4986820;28;20227;-64
2022/03/09 05:18:48;;;;;;;18.08;10.10;;;-2.00;1.00;;;;;;4981826;28;20672;-61
2022/03/09 05:21:13;;;;;;;15.27;9.60;;;-2.00;1.00;;;;;;4983728;28;20265;-64
2022/03/09 05:23:39;;;;;;;18.03;10.33;;;-2.00;99.90;;;;;;4968233;28;20543;-63
2022/03/09 05:26:04;;;;;;;14.90;10.23;;;-2.00;99.90;;;;;;4970418;28;20181;-64
2022/03/09 05:28:30;;;;;;;16.03;11.17;;;-2.00;99.90;;;;;;4969027;28;20196;-63
2022/03/09 05:30:55;;;;;;;15.27;10.43;;;-1.90;99.90;;;;;;4983377;28;20188;-64
2022/03/09 05:33:21;;;;;;;13.60;10.03;;;-1.90;99.90;;;;;;4973546;28;20203;-64
2022/03/09 05:35:46;;;;;;;14.63;10.90;;;-2.00;99.90;;;;;;4979288;28;20203;-64
2022/03/09 05:38:12;;;;;;;15.43;10.00;;;-2.00;99.90;;;;;;4973050;28;20187;-64
2022/03/09 05:40:37;;;;;;;13.73;9.53;;;-2.10;99.90;;;;;;4965912;28;20213;-64
2022/03/09 05:43:03;;;;;;;16.47;10.07;;;-2.00;99.90;;;;;;4980237;28;20185;-64
2022/03/09 05:45:28;;;;;;;15.30;10.10;;;-2.00;1.00;;;;;;4991994;28;20192;-63
2022/03/09 05:47:54;;;;;;;15.23;10.53;;;-2.00;1.00;;;;;;4989714;28;20749;-65
2022/03/09 05:50:21;;;;;;;16.97;10.87;;;-1.90;1.00;;;;;;4983920;28;20244;-64
2022/03/09 05:52:47;;;;;;;15.65;9.98;;;-1.90;1.00;;;;;;4990049;28;20295;-64
2022/03/09 05:55:12;;;;;;;14.73;10.30;;;-1.90;2.90;;;;;;4992570;28;20238;-63
2022/03/09 05:57:38;;;;;;;15.90;10.90;;;-1.90;3.80;;;;;;4991308;28;20211;-64
2022/03/09 06:00:06;;;;;;;13.67;10.97;;;-1.90;5.10;;;;;;4991603;28;20188;-64
2022/03/09 06:02:32;;;;;;;16.30;10.90;;;-1.90;4.00;;;;;;4991932;28;20247;-64
2022/03/09 06:04:57;;;;;;;15.33;10.33;;;-1.90;5.70;;;;;;4992877;28;20208;-61
2022/03/09 06:07:23;;;;;;;14.40;10.00;;;-1.90;5.50;;;;;;4991307;28;20246;-63
2022/03/09 06:09:49;;;;;;;19.70;12.03;;;-1.90;5.30;;;;;;4993318;28;20232;-64
2022/03/09 06:12:15;;;;;;;12.68;10.20;;;-1.90;1.00;;;;;;4992820;28;20188;-64
2022/03/09 06:14:41;;;;;;;13.68;9.90;;;-1.90;1.00;;;;;;5002159;28;20227;-63
2022/03/09 06:17:06;;;;;;;17.23;11.60;;;-1.90;1.00;;;;;;4993355;28;20638;-63
2022/03/09 06:19:32;;;;;;;14.93;11.00;;;-1.90;1.00;;;;;;4992337;28;20242;-63
2022/03/09 06:21:57;;;;;;;17.87;10.40;;;-1.80;1.00;;;;;;4991851;28;20187;-60
2022/03/09 06:24:23;;;;;;;16.20;10.90;;;-1.80;1.00;;;;;;4991614;28;20188;-64
2022/03/09 06:26:49;;;;;;;18.10;11.30;;;-1.70;1.00;;;;;;4991772;28;20188;-63
2022/03/09 06:29:14;;;;;;;14.57;10.43;;;-1.70;99.90;;;;;;4992796;28;20188;-64
2022/03/09 06:31:42;;;;;;;15.93;10.43;;;-1.60;99.90;;;;;;4991634;28;20662;-63
2022/03/09 06:34:08;;;;;;;14.40;9.80;;;-1.60;99.90;;;;;;4990416;28;20200;-64
2022/03/09 06:36:33;;;;;;;17.10;11.50;;;-1.50;99.90;;;;;;4991233;28;20222;-64
2022/03/09 06:38:59;;;;;;;16.20;10.47;;;-1.40;99.90;;;;;;4993897;28;20176;-63
2022/03/09 06:41:25;;;;;;;16.93;10.60;;;-1.40;99.90;;;;;;5005646;28;20635;-64
2022/03/09 06:43:50;;;;;;;15.00;10.00;;;-1.30;99.90;;;;;;4989995;28;20901;-64
2022/03/09 06:46:16;;;;;;;13.43;9.60;;;-1.30;99.90;;;;;;4991203;28;20251;-63
2022/03/09 06:48:42;;;;;;;14.20;10.43;;;-1.40;99.90;;;;;;4992524;28;20204;-64
2022/03/09 06:51:07;;;;;;;14.53;11.40;;;-1.30;99.90;;;;;;4989382;28;20192;-64
2022/03/09 06:53:33;;;;;;;17.70;11.10;;;-1.20;99.90;;;;;;4991498;28;20945;-63
2022/03/09 06:55:59;;;;;;;17.60;12.27;;;-1.20;99.90;;;;;;4989960;28;20232;-64
2022/03/09 06:58:24;;;;;;;18.17;11.80;;;-1.10;99.90;;;;;;4990576;28;20230;-64
2022/03/09 07:00:50;;;;;;;15.80;11.03;;;-1.00;99.90;;;;;;4990796;28;20308;-64
2022/03/09 07:03:16;;;;;;;14.68;11.32;;;-1.00;99.90;;;;;;4992767;28;20194;-64
2022/03/09 07:05:42;;;;;;;16.93;10.73;;;-1.00;99.90;;;;;;4990764;28;20176;-64
2022/03/09 07:08:08;;;;;;;14.63;9.83;;;-0.90;99.90;;;;;;4990843;28;20192;-66
2022/03/09 07:10:33;;;;;;;15.77;10.05;;;-0.80;99.90;;;;;;4972414;28;20185;-64
2022/03/09 07:12:59;;;;;;;13.93;9.47;;;-0.80;99.90;;;;;;4990385;28;20220;-63
2022/03/09 07:15:24;;;;;;;14.70;10.67;;;-0.70;99.90;;;;;;4992049;28;20235;-64
2022/03/09 07:17:50;;;;;;;15.87;10.87;;;-0.60;99.90;;;;;;4989695;28;20195;-65
2022/03/09 07:20:18;;;;;;;14.50;10.40;;;-0.50;99.90;;;;;;4989213;28;20645;-65
2022/03/09 07:22:44;;;;;;;13.48;10.05;;;-0.40;99.90;;;;;;4991506;28;20535;-65
2022/03/09 07:25:10;;;;;;;15.15;10.75;;;-0.30;99.90;;;;;;4990564;28;20271;-65
2022/03/09 07:27:36;;;;;;;17.75;11.00;;;-0.30;99.90;;;;;;4991166;28;20195;-65
2022/03/09 07:30:03;;;;;;;15.30;10.73;;;-0.20;99.90;;;;;;4991070;28;20199;-65
2022/03/09 07:32:29;;;;;;;16.98;11.65;;;-0.10;99.90;;;;;;4990558;28;20443;-65
2022/03/09 07:34:54;;;;;;;19.33;10.97;;;0.10;99.90;;;;;;4990969;28;20196;-64
2022/03/09 07:37:20;;;;;;;14.50;10.67;;;0.20;99.90;;;;;;4990474;28;20185;-66
2022/03/09 07:39:45;;;;;;;15.57;11.23;;;0.20;99.90;;;;;;4989369;28;20184;-65
2022/03/09 07:42:11;;;;;;;15.93;11.10;;;0.30;99.90;;;;;;4998420;28;20172;-65
2022/03/09 07:44:36;;;;;;;14.47;11.33;;;0.50;99.90;;;;;;4991096;28;20652;-65
2022/03/09 07:47:02;;;;;;;17.00;11.00;;;0.60;99.90;;;;;;4990848;28;20188;-65
2022/03/09 07:49:28;;;;;;;14.07;10.97;;;0.70;99.90;;;;;;4992220;28;20181;-66
2022/03/09 07:51:53;;;;;;;14.97;11.40;;;0.80;99.90;;;;;;4990619;28;20498;-63
2022/03/09 07:54:19;;;;;;;14.57;11.63;;;1.00;99.90;;;;;;4992128;28;20187;-65
2022/03/09 07:56:45;;;;;;;14.53;11.20;;;1.20;99.90;;;;;;4989688;28;20204;-65
2022/03/09 07:59:11;;;;;;;16.47;11.27;;;1.30;99.90;;;;;;4970519;28;20251;-65
2022/03/09 08:01:37;;;;;;;16.65;11.00;;;1.40;99.90;;;;;;4988542;28;20227;-66
2022/03/09 08:04:03;;;;;;;13.30;10.27;;;1.60;99.90;;;;;;4989013;28;20215;-66
2022/03/09 08:06:28;;;;;;;15.30;11.10;;;1.80;99.90;;;;;;4992704;28;20238;-65
2022/03/09 08:08:54;;;;;;;15.47;11.30;;;1.90;99.90;;;;;;4989002;28;20283;-65
2022/03/09 08:11:20;;;;;;;13.97;11.30;;;2.10;99.90;;;;;;4990208;28;20191;-65
2022/03/09 08:13:45;;;;;;;16.23;11.77;;;2.30;99.90;;;;;;4983978;28;21569;-65
2022/03/09 08:16:11;;;;;;;16.10;11.90;;;2.50;99.90;;;;;;4975782;28;20942;-65
2022/03/09 08:18:37;;;;;;;15.13;10.93;;;2.80;99.90;;;;;;4973198;28;20192;-64
2022/03/09 08:21:02;;;;;;;14.15;11.32;;;3.00;99.90;;;;;;4990536;28;20176;-65
2022/03/09 08:23:28;;;;;;;13.53;10.97;;;3.30;99.90;;;;;;4989284;28;20609;-66
2022/03/09 08:25:54;;;;;;;12.43;11.07;;;3.80;99.90;;;;;;4994160;28;20690;-66
2022/03/09 08:28:20;;;;;;;15.15;12.10;;;4.30;99.90;;;;;;4996400;28;20183;-66
2022/03/09 08:30:45;;;;;;;14.93;12.40;;;5.00;99.30;;;;;;4995545;28;20195;-66
2022/03/09 08:33:11;;;;;;;14.90;11.97;;;5.70;97.90;;;;;;4993703;28;20227;-65
2022/03/09 08:35:38;;;;;;;14.90;12.43;;;6.40;95.80;;;;;;4997812;28;20200;-65
2022/03/09 08:38:04;;;;;;;15.17;12.43;;;7.00;93.50;;;;;;5003258;28;20243;-65
2022/03/09 08:40:30;;;;;;;16.33;13.17;;;7.60;90.70;;;;;;4994477;28;20439;-66
2022/03/09 08:42:55;;;;;;;14.83;13.33;;;8.50;87.20;;;;;;4994022;28;20415;-67
2022/03/09 08:45:21;;;;;;;13.60;12.30;;;9.20;77.70;;;;;;4993135;28;20438;-66
2022/03/09 08:47:47;;;;;;;16.60;13.80;;;10.00;70.30;;;;;;4992694;28;20258;-66
2022/03/09 08:50:13;;;;;;;14.43;12.83;;;10.30;64.40;;;;;;4993375;28;20216;-65
2022/03/09 08:52:39;;;;;;;13.40;12.10;;;10.80;61.20;;;;;;4992998;28;20188;-66
2022/03/09 08:55:05;;;;;;;14.50;13.00;;;11.20;58.20;;;;;;4992936;28;20513;-67
2022/03/09 08:57:31;;;;;;;14.33;12.93;;;11.70;55.80;;;;;;4993469;28;21027;-67
2022/03/09 09:00:04;;;;;;;14.47;13.03;;;12.00;53.90;;;;;;4993024;28;20506;-67
2022/03/09 09:02:30;;;;;;;13.87;12.57;;;12.60;52.60;;;;;;5001689;28;20176;-67
2022/03/09 09:04:56;;;;;;;14.30;12.80;;;13.30;49.20;;;;;;4993263;28;20427;-67
2022/03/09 09:07:22;;;;;;;15.23;13.70;;;13.70;47.50;;;;;;4993580;28;20774;-67
2022/03/09 09:09:47;;;;;;;15.50;13.97;;;14.10;45.70;;;;;;4985292;28;20428;-67
2022/03/09 09:12:13;;;;;;;15.23;13.30;;;14.70;43.90;;;;;;4989507;28;20187;-66
2022/03/09 09:14:39;;;;;;;14.80;13.30;;;15.00;43.10;;;;;;4992388;28;20228;-67
2022/03/09 09:17:05;;;;;;;15.23;13.73;;;14.40;42.70;;;;;;5002679;28;20184;-67
2022/03/09 09:19:31;;;;;;;14.43;13.13;;;14.40;43.30;;;;;;5002410;28;20236;-67
2022/03/09 09:21:56;;;;;;;13.73;12.40;;;14.80;42.90;;;;;;4993174;28;20253;-67
2022/03/09 09:24:22;;;;;;;13.13;11.90;;;14.90;41.00;;;;;;4996677;28;20513;-67
2022/03/09 09:26:48;;;;;;;13.33;11.80;;;14.90;39.30;;;;;;4993674;28;20185;-67
2022/03/09 09:29:14;;;;;;;13.10;11.90;;;14.70;39.90;;;;;;4991379;28;20190;-67
2022/03/09 09:31:40;;;;;;;13.07;11.83;;;14.80;39.20;;;;;;5003125;28;20185;-67
2022/03/09 09:34:07;;;;;;;14.20;12.90;;;15.50;39.50;;;;;;4976874;28;20434;-67
2022/03/09 09:36:33;;;;;;;12.70;11.50;;;15.80;37.10;;;;;;4993302;28;20213;-67
2022/03/09 09:38:59;;;;;;;14.27;12.97;;;15.50;37.30;;;;;;4999480;28;20439;-67
2022/03/09 09:41:26;;;;;;;13.43;12.33;;;16.20;36.70;;;;;;4991662;28;21005;-67
2022/03/09 09:43:51;;;;;;;12.60;11.37;;;16.70;35.10;;;;;;4991608;28;20670;-67
2022/03/09 09:46:17;;;;;;;13.00;11.90;;;17.40;31.70;;;;;;4993003;28;20408;-67
2022/03/09 09:48:44;;;;;;;13.20;11.90;;;18.10;29.80;;;;;;4990804;28;20180;-67
2022/03/09 09:51:12;;;;;;;12.90;11.70;;;18.60;29.00;;;;;;4991549;28;20887;-67
2022/03/09 09:53:44;;;;;;;14.10;12.80;;;18.60;28.60;;;;;;4992875;28;20459;-68
2022/03/09 09:56:10;;;;;;;13.47;12.27;;;18.60;28.90;;;;;;4991090;28;20932;-67
2022/03/09 09:58:37;;;;;;;13.90;12.70;;;18.40;29.00;;;;;;4987467;28;20434;-67
2022/03/09 10:01:03;;;;;;;13.00;11.73;;;18.80;28.60;;;;;;4989165;28;20177;-67
2022/03/09 10:03:28;;;;;;;14.07;12.90;;;19.20;28.40;;;;;;4991082;28;20420;-67
2022/03/09 10:05:54;;;;;;;12.87;11.77;;;19.10;27.80;;;;;;4990624;28;20208;-66
2022/03/09 10:08:20;;;;;;;13.37;12.27;;;18.80;28.50;;;;;;4990026;28;20234;-67
2022/03/09 10:10:55;;;;;;;13.40;12.10;;;18.80;28.80;;;;;;4987680;28;20250;-66
2022/03/09 10:13:26;;;;;;;12.70;11.60;;;18.80;28.20;;;;;;4974304;28;20235;-65
2022/03/09 10:16:06;;;;;;;11.60;10.70;;;18.40;28.00;;;;;;4972996;28;20461;-61
2022/03/09 10:18:32;;;;;;;11.80;10.70;;;18.80;27.10;;;;;;4970460;28;20467;-66
2022/03/09 10:21:12;;;;;;;12.37;11.10;;;19.50;27.70;;;;;;4974271;28;20449;-66
2022/03/09 10:23:54;;;;;;;11.53;10.53;;;19.50;26.20;;;;;;4969361;28;20183;-67
2022/03/09 10:26:22;;;;;;;11.77;10.80;;;20.10;26.40;;;;;;4973134;28;20929;-66
2022/03/09 10:28:56;;;;;;;10.70;9.83;;;20.40;25.90;;;;;;4982616;28;20916;-66
2022/03/09 10:31:36;;;;;;;11.90;10.90;;;19.60;25.90;;;;;;4987785;28;21273;-67
2022/03/09 10:34:11;;;;;;;12.20;11.00;;;19.70;26.50;;;;;;4997420;28;20424;-66
2022/03/09 10:36:37;;;;;;;11.40;10.40;;;19.30;26.50;;;;;;4999205;28;20458;-66
2022/03/09 10:39:16;;;;;;;11.10;10.20;;;19.00;27.20;;;;;;4996565;28;20423;-66
2022/03/09 10:41:43;;;;;;;10.93;9.93;;;18.70;27.80;;;;;;4998686;28;20839;-66
2022/03/09 10:44:09;;;;;;;12.20;9.43;;;18.80;28.10;;;;;;4997836;28;21278;-67
2022/03/09 10:46:44;;;;;;;9.73;8.93;;;19.40;27.40;;;;;;5000667;28;20498;-69
2022/03/09 10:49:12;;;;;;;10.27;9.40;;;20.00;27.30;;;;;;4999371;28;20827;-67
2022/03/09 10:51:41;;;;;;;9.57;8.80;;;20.00;26.60;;;;;;4993263;28;20437;-65
2022/03/09 10:54:22;;;;;;;10.40;9.60;;;20.50;26.50;;;;;;4987346;28;20434;-67
2022/03/09 10:56:48;;;;;;;9.30;8.40;;;20.60;26.20;;;;;;4990471;28;20474;-70
2022/03/09 10:59:24;;;;;;;11.07;9.10;;;20.40;26.10;;;;;;4989833;28;20419;-67
2022/03/09 11:02:08;;;;;;;10.10;9.20;;;20.60;26.60;;;;;;4988388;28;20458;-67
2022/03/09 11:04:34;;;;;;;9.90;9.13;;;21.10;25.70;;;;;;4982762;28;20511;-66
2022/03/09 11:07:00;;;;;;;9.70;8.80;;;21.00;25.90;;;;;;4967195;28;20437;-66
2022/03/09 11:09:26;;;;;;;9.70;8.90;;;21.00;25.70;;;;;;4987592;28;20456;-67
2022/03/09 11:11:52;;;;;;;8.63;8.00;;;20.60;25.60;;;;;;4990602;28;20187;-66
2022/03/09 11:14:19;;;;;;;10.70;9.07;;;21.30;25.80;;;;;;4987245;28;20965;-62
2022/03/09 11:16:46;;;;;;;9.20;8.40;;;21.60;25.40;;;;;;4997821;28;20901;-68
2022/03/09 11:19:13;;;;;;;9.27;8.60;;;23.00;23.00;;;;;;4998566;28;20419;-64
2022/03/09 11:21:39;;;;;;;8.20;7.60;;;23.30;23.10;;;;;;4995026;28;20424;-67
2022/03/09 11:24:11;;;;;;;9.80;9.00;;;23.10;23.40;;;;;;4999599;28;20420;-67
2022/03/09 11:26:43;;;;;;;9.17;8.57;;;23.00;22.90;;;;;;4976152;28;20447;-66
2022/03/09 11:29:12;;;;;;;8.70;8.00;;;22.90;22.50;;;;;;4994764;28;20464;-67
2022/03/09 11:31:51;;;;;;;9.77;9.07;;;23.30;22.50;;;;;;4993434;28;20438;-68
2022/03/09 11:34:29;;;;;;;9.37;8.57;;;23.30;22.60;;;;;;4993934;28;20423;-68
2022/03/09 11:37:03;;;;;;;9.17;8.50;;;23.10;23.30;;;;;;4984746;28;20464;-68
2022/03/09 11:39:28;;;;;;;9.83;8.97;;;23.10;23.40;;;;;;4988503;28;20409;-67
2022/03/09 11:42:19;;;;;;;9.53;8.53;;;23.20;22.20;;;;;;4989270;28;20525;-67
2022/03/09 11:44:49;;;;;;;8.27;7.67;;;22.80;23.30;;;;;;4988200;28;20178;-67
2022/03/09 11:47:15;;;;;;;9.47;8.77;;;23.20;22.80;;;;;;4988586;28;20896;-64
2022/03/09 11:49:49;;;;;;;9.20;8.50;;;23.50;22.60;;;;;;4971279;28;20484;-68
2022/03/09 11:52:17;;;;;;;9.50;8.80;;;23.30;22.30;;;;;;4986737;28;20415;-67
2022/03/09 11:54:45;;;;;;;9.33;8.63;;;23.00;22.00;;;;;;4989105;28;20420;-67
2022/03/09 11:57:15;;;;;;;9.67;8.77;;;23.00;22.30;;;;;;4988941;28;20417;-67
2022/03/09 12:00:17;;;;;;;9.77;8.97;;;22.70;22.80;;;;;;4971239;28;20584;-68
2022/03/09 12:02:48;;;;;;;8.97;8.27;;;23.50;21.20;;;;;;4989289;28;20779;-68
2022/03/09 12:05:29;;;;;;;9.50;8.70;;;23.30;22.80;;;;;;4987889;28;20437;-67
2022/03/09 12:07:55;;;;;;;10.70;9.83;;;23.40;21.50;;;;;;4989456;28;20402;-67
2022/03/09 12:10:40;;;;;;;10.40;9.60;;;23.30;21.20;;;;;;4997082;28;20422;-67
2022/03/09 12:13:12;;;;;;;9.73;8.93;;;23.90;21.60;;;;;;4979770;28;20499;-68
2022/03/09 12:16:07;;;;;;;10.17;9.37;;;24.00;22.00;;;;;;4981664;28;20476;-67
2022/03/09 12:18:45;;;;;;;9.33;8.63;;;23.60;21.60;;;;;;4988729;28;20871;-67
2022/03/09 12:21:27;;;;;;;9.40;8.60;;;22.80;22.10;;;;;;4989195;28;20776;-67
2022/03/09 12:24:04;;;;;;;9.93;9.13;;;22.90;22.40;;;;;;4974667;28;20441;-68
2022/03/09 12:26:48;;;;;;;9.43;8.73;;;23.10;22.20;;;;;;4984894;28;20453;-67
2022/03/09 12:29:26;;;;;;;9.10;8.40;;;23.60;21.90;;;;;;4980624;28;20525;-64
2022/03/09 12:32:07;;;;;;;9.33;8.63;;;24.00;21.70;;;;;;4985952;28;20444;-68
2022/03/09 12:34:36;;;;;;;9.10;8.40;;;24.30;20.90;;;;;;4979448;28;20779;-67
2022/03/09 12:37:05;;;;;;;9.17;8.57;;;23.90;21.10;;;;;;4987620;28;20952;-67
2022/03/09 12:39:31;;;;;;;8.83;8.10;;;22.90;21.40;;;;;;4986515;28;20445;-67
2022/03/09 12:41:58;;;;;;;9.07;8.30;;;22.90;22.30;;;;;;4988684;28;20413;-70